sensor_id;sensor_type;location;lat;lon;timestamp;pressure;altitude;pressure_sealevel;temperature;humidity
60427;BME280;46274;47.168;27.604;2023-02-26T00:03:41;98638.06;;;4.10;70.81
60427;BME280;46274;47.168;27.604;2023-02-26T00:09:47;98588.56;;;3.73;71.18
60427;BME280;46274;47.168;27.604;2023-02-26T00:15:55;98667.75;;;4.08;71.75
60427;BME280;46274;47.168;27.604;2023-02-26T00:22:01;98682.56;;;4.44;70.74
60427;BME280;46274;47.168;27.604;2023-02-26T00:28:04;98670.22;;;4.26;71.92
60427;BME280;46274;47.168;27.604;2023-02-26T00:34:13;98620.69;;;4.06;71.51
60427;BME280;46274;47.168;27.604;2023-02-26T00:47:00;98568.13;;;3.80;70.97
60427;BME280;46274;47.168;27.604;2023-02-26T00:53:26;98684.41;;;4.59;69.93
60427;BME280;46274;47.168;27.604;2023-02-26T00:59:29;98644.94;;;4.04;71.56
60427;BME280;46274;47.168;27.604;2023-02-26T01:05:32;98672.59;;;4.05;72.46
60427;BME280;46274;47.168;27.604;2023-02-26T01:11:35;98675.25;;;4.13;72.10
60427;BME280;46274;47.168;27.604;2023-02-26T01:17:46;98686.09;;;4.52;71.10
60427;BME280;46274;47.168;27.604;2023-02-26T01:23:51;98519.78;;;3.57;70.44
60427;BME280;46274;47.168;27.604;2023-02-26T01:29:54;98682.50;;;4.68;70.50
60427;BME280;46274;47.168;27.604;2023-02-26T01:36:30;98629.13;;;4.42;70.23
60427;BME280;46274;47.168;27.604;2023-02-26T01:42:35;98688.19;;;4.73;69.72
60427;BME280;46274;47.168;27.604;2023-02-26T01:48:52;98635.66;;;4.40;69.56
60427;BME280;46274;47.168;27.604;2023-02-26T01:54:55;98662.53;;;4.71;68.28
60427;BME280;46274;47.168;27.604;2023-02-26T02:00:57;98687.28;;;4.89;67.91
60427;BME280;46274;47.168;27.604;2023-02-26T02:07:01;98554.94;;;4.18;67.67
60427;BME280;46274;47.168;27.604;2023-02-26T02:13:21;98709.09;;;4.86;68.16
60427;BME280;46274;47.168;27.604;2023-02-26T02:26:23;98717.16;;;4.14;72.07
60427;BME280;46274;47.168;27.604;2023-02-26T02:32:43;98763.88;;;4.11;72.26
60427;BME280;46274;47.168;27.604;2023-02-26T02:38:55;98748.97;;;4.17;70.88
60427;BME280;46274;47.168;27.604;2023-02-26T02:45:05;98753.66;;;4.40;69.58
60427;BME280;46274;47.168;27.604;2023-02-26T02:51:13;98778.13;;;4.45;69.45
60427;BME280;46274;47.168;27.604;2023-02-26T03:09:28;98821.47;;;3.91;70.45
60427;BME280;46274;47.168;27.604;2023-02-26T03:41:17;98853.38;;;3.68;73.59
60427;BME280;46274;47.168;27.604;2023-02-26T03:47:28;98851.75;;;3.75;73.52
60427;BME280;46274;47.168;27.604;2023-02-26T03:53:35;98838.97;;;3.69;72.80
60427;BME280;46274;47.168;27.604;2023-02-26T03:59:44;98877.41;;;3.86;73.05
60427;BME280;46274;47.168;27.604;2023-02-26T04:05:48;98767.53;;;3.19;73.20
60427;BME280;46274;47.168;27.604;2023-02-26T04:11:56;98787.38;;;3.42;72.40
60427;BME280;46274;47.168;27.604;2023-02-26T04:18:08;98796.22;;;3.43;72.72
60427;BME280;46274;47.168;27.604;2023-02-26T04:24:13;98879.41;;;3.92;72.86
60427;BME280;46274;47.168;27.604;2023-02-26T04:30:15;98839.28;;;3.58;73.04
60427;BME280;46274;47.168;27.604;2023-02-26T04:36:25;98829.16;;;3.35;74.01
60427;BME280;46274;47.168;27.604;2023-02-26T04:42:34;98898.00;;;3.85;73.47
60427;BME280;46274;47.168;27.604;2023-02-26T04:48:37;98878.31;;;3.60;73.87
60427;BME280;46274;47.168;27.604;2023-02-26T04:54:43;98909.69;;;3.84;73.64
60427;BME280;46274;47.168;27.604;2023-02-26T05:00:50;98926.19;;;3.63;74.64
60427;BME280;46274;47.168;27.604;2023-02-26T05:06:55;98928.22;;;3.35;76.10
60427;BME280;46274;47.168;27.604;2023-02-26T05:12:57;98887.97;;;3.19;76.14
60427;BME280;46274;47.168;27.604;2023-02-26T05:19:00;98911.84;;;3.12;76.86
60427;BME280;46274;47.168;27.604;2023-02-26T05:25:04;98950.25;;;3.29;77.32
60427;BME280;46274;47.168;27.604;2023-02-26T05:31:07;98976.84;;;3.04;78.66
60427;BME280;46274;47.168;27.604;2023-02-26T05:37:10;98955.78;;;2.83;78.87
60427;BME280;46274;47.168;27.604;2023-02-26T05:43:13;98967.78;;;2.97;78.11
60427;BME280;46274;47.168;27.604;2023-02-26T05:49:15;98877.81;;;2.52;77.92
60427;BME280;46274;47.168;27.604;2023-02-26T05:55:17;98970.06;;;2.92;78.48
60427;BME280;46274;47.168;27.604;2023-02-26T06:01:21;98992.13;;;3.12;78.47
60427;BME280;46274;47.168;27.604;2023-02-26T06:07:24;99029.34;;;3.41;77.63
60427;BME280;46274;47.168;27.604;2023-02-26T06:13:26;99027.44;;;3.34;77.50
60427;BME280;46274;47.168;27.604;2023-02-26T06:19:29;99018.50;;;3.51;76.75
60427;BME280;46274;47.168;27.604;2023-02-26T06:25:31;98916.44;;;2.76;77.07
60427;BME280;46274;47.168;27.604;2023-02-26T06:31:33;98993.41;;;3.26;76.55
60427;BME280;46274;47.168;27.604;2023-02-26T06:37:36;99016.19;;;3.30;76.66
60427;BME280;46274;47.168;27.604;2023-02-26T06:43:39;99065.34;;;3.47;77.46
60427;BME280;46274;47.168;27.604;2023-02-26T06:49:40;98970.78;;;2.58;78.18
60427;BME280;46274;47.168;27.604;2023-02-26T06:55:46;98960.28;;;2.65;78.55
60427;BME280;46274;47.168;27.604;2023-02-26T07:01:48;99028.75;;;2.76;78.91
60427;BME280;46274;47.168;27.604;2023-02-26T07:07:50;99077.69;;;3.04;79.72
60427;BME280;46274;47.168;27.604;2023-02-26T07:13:53;99077.16;;;3.00;78.87
60427;BME280;46274;47.168;27.604;2023-02-26T07:19:55;99106.13;;;2.87;80.36
60427;BME280;46274;47.168;27.604;2023-02-26T07:25:58;99121.50;;;2.57;81.80
60427;BME280;46274;47.168;27.604;2023-02-26T07:32:02;99068.16;;;2.38;80.24
60427;BME280;46274;47.168;27.604;2023-02-26T07:38:06;99065.66;;;2.27;82.08
60427;BME280;46274;47.168;27.604;2023-02-26T07:44:08;99114.16;;;2.87;80.64
60427;BME280;46274;47.168;27.604;2023-02-26T07:50:10;99113.41;;;2.39;82.48
60427;BME280;46274;47.168;27.604;2023-02-26T07:56:13;99105.41;;;2.02;84.11
60427;BME280;46274;47.168;27.604;2023-02-26T08:02:15;99091.81;;;1.86;84.94
60427;BME280;46274;47.168;27.604;2023-02-26T08:08:19;99103.97;;;2.17;84.58
60427;BME280;46274;47.168;27.604;2023-02-26T08:14:22;99079.88;;;1.90;84.29
60427;BME280;46274;47.168;27.604;2023-02-26T08:20:25;99070.19;;;1.89;85.28
60427;BME280;46274;47.168;27.604;2023-02-26T08:26:27;99117.63;;;2.14;85.39
60427;BME280;46274;47.168;27.604;2023-02-26T08:32:30;99103.50;;;1.85;85.82
60427;BME280;46274;47.168;27.604;2023-02-26T08:38:33;99135.50;;;2.04;84.71
60427;BME280;46274;47.168;27.604;2023-02-26T08:44:35;99145.19;;;2.05;85.10
60427;BME280;46274;47.168;27.604;2023-02-26T08:50:37;99162.78;;;1.98;85.68
60427;BME280;46274;47.168;27.604;2023-02-26T08:56:39;99131.50;;;2.83;80.52
60427;BME280;46274;47.168;27.604;2023-02-26T09:02:41;99153.06;;;2.81;80.78
60427;BME280;46274;47.168;27.604;2023-02-26T09:08:43;99175.38;;;2.90;79.32
60427;BME280;46274;47.168;27.604;2023-02-26T09:14:45;99188.00;;;2.98;79.38
60427;BME280;46274;47.168;27.604;2023-02-26T09:20:48;99195.88;;;2.99;79.01
60427;BME280;46274;47.168;27.604;2023-02-26T09:26:50;98980.16;;;1.62;78.53
60427;BME280;46274;47.168;27.604;2023-02-26T09:32:52;99197.72;;;2.99;78.85
60427;BME280;46274;47.168;27.604;2023-02-26T09:38:54;99147.06;;;2.70;78.82
60427;BME280;46274;47.168;27.604;2023-02-26T09:44:57;99183.00;;;2.85;78.69
60427;BME280;46274;47.168;27.604;2023-02-26T09:51:01;99125.22;;;2.47;78.71
60427;BME280;46274;47.168;27.604;2023-02-26T09:57:04;99136.16;;;2.53;78.49
60427;BME280;46274;47.168;27.604;2023-02-26T10:03:19;99232.66;;;2.97;78.57
60427;BME280;46274;47.168;27.604;2023-02-26T10:15:41;99193.41;;;2.88;78.38
60427;BME280;46274;47.168;27.604;2023-02-26T10:21:49;99241.31;;;2.81;79.88
60427;BME280;46274;47.168;27.604;2023-02-26T10:34:34;99268.63;;;2.18;81.07
60427;BME280;46274;47.168;27.604;2023-02-26T10:40:52;99263.25;;;2.85;79.21
60427;BME280;46274;47.168;27.604;2023-02-26T10:47:25;99279.66;;;2.72;80.50
60427;BME280;46274;47.168;27.604;2023-02-26T10:53:29;99285.69;;;3.12;79.00
60427;BME280;46274;47.168;27.604;2023-02-26T10:59:32;99284.56;;;3.04;78.87
60427;BME280;46274;47.168;27.604;2023-02-26T11:05:35;99285.31;;;2.59;81.01
60427;BME280;46274;47.168;27.604;2023-02-26T11:11:51;99288.22;;;2.00;82.34
60427;BME280;46274;47.168;27.604;2023-02-26T11:17:56;99199.38;;;2.35;79.40
60427;BME280;46274;47.168;27.604;2023-02-26T11:24:20;99297.31;;;2.16;82.13
60427;BME280;46274;47.168;27.604;2023-02-26T11:30:31;99263.16;;;2.20;82.18
60427;BME280;46274;47.168;27.604;2023-02-26T11:36:37;99311.81;;;2.90;80.48
60427;BME280;46274;47.168;27.604;2023-02-26T11:42:54;99320.72;;;2.81;80.30
60427;BME280;46274;47.168;27.604;2023-02-26T11:48:59;99284.78;;;2.46;82.08
60427;BME280;46274;47.168;27.604;2023-02-26T11:55:50;99325.91;;;2.92;80.52
60427;BME280;46274;47.168;27.604;2023-02-26T12:01:29;99292.28;;;2.23;81.37
60427;BME280;46274;47.168;27.604;2023-02-26T12:07:31;99280.69;;;2.52;80.77
60427;BME280;46274;47.168;27.604;2023-02-26T12:13:46;99334.75;;;2.26;81.80
60427;BME280;46274;47.168;27.604;2023-02-26T12:45:41;99315.19;;;1.87;84.46
60427;BME280;46274;47.168;27.604;2023-02-26T12:52:21;99379.56;;;1.93;85.98
60427;BME280;46274;47.168;27.604;2023-02-26T13:05:02;99388.03;;;1.89;86.66
60427;BME280;46274;47.168;27.604;2023-02-26T13:17:59;99395.06;;;1.90;85.71
60427;BME280;46274;47.168;27.604;2023-02-26T13:24:17;99425.44;;;1.89;85.52
60427;BME280;46274;47.168;27.604;2023-02-26T13:30:29;99394.19;;;1.80;86.19
60427;BME280;46274;47.168;27.604;2023-02-26T13:36:34;99382.44;;;1.51;86.22
60427;BME280;46274;47.168;27.604;2023-02-26T13:49:36;99429.81;;;1.59;87.49
60427;BME280;46274;47.168;27.604;2023-02-26T13:55:43;99468.97;;;1.80;86.87
60427;BME280;46274;47.168;27.604;2023-02-26T14:20:43;99443.09;;;1.80;83.54
60427;BME280;46274;47.168;27.604;2023-02-26T14:26:50;99480.03;;;2.15;82.51
60427;BME280;46274;47.168;27.604;2023-02-26T14:33:08;99509.06;;;2.30;82.32
60427;BME280;46274;47.168;27.604;2023-02-26T14:39:35;99516.81;;;2.33;82.39
60427;BME280;46274;47.168;27.604;2023-02-26T14:45:38;99507.84;;;2.03;82.29
60427;BME280;46274;47.168;27.604;2023-02-26T14:58:27;99548.09;;;1.81;83.65
60427;BME280;46274;47.168;27.604;2023-02-26T15:11:08;99558.25;;;1.56;84.39
60427;BME280;46274;47.168;27.604;2023-02-26T15:17:37;99559.09;;;1.57;84.22
60427;BME280;46274;47.168;27.604;2023-02-26T15:23:49;99583.50;;;1.52;84.30
60427;BME280;46274;47.168;27.604;2023-02-26T15:29:51;99452.13;;;0.43;84.83
60427;BME280;46274;47.168;27.604;2023-02-26T15:35:54;99589.47;;;1.23;84.85
60427;BME280;46274;47.168;27.604;2023-02-26T15:42:01;99601.34;;;1.30;83.98
60427;BME280;46274;47.168;27.604;2023-02-26T15:48:17;99598.06;;;1.06;84.75
60427;BME280;46274;47.168;27.604;2023-02-26T15:54:23;99632.69;;;1.17;84.59
60427;BME280;46274;47.168;27.604;2023-02-26T16:00:25;99575.72;;;0.86;84.07
60427;BME280;46274;47.168;27.604;2023-02-26T16:06:34;99665.72;;;1.05;84.80
60427;BME280;46274;47.168;27.604;2023-02-26T16:12:39;99666.81;;;1.02;84.61
60427;BME280;46274;47.168;27.604;2023-02-26T16:18:44;99656.19;;;0.80;85.08
60427;BME280;46274;47.168;27.604;2023-02-26T16:25:00;99570.38;;;0.20;85.25
60427;BME280;46274;47.168;27.604;2023-02-26T16:31:04;99579.63;;;0.16;85.35
60427;BME280;46274;47.168;27.604;2023-02-26T16:37:30;99724.91;;;0.87;86.12
60427;BME280;46274;47.168;27.604;2023-02-26T16:49:46;99740.81;;;0.89;85.73
60427;BME280;46274;47.168;27.604;2023-02-26T16:55:51;99748.31;;;0.84;85.99
60427;BME280;46274;47.168;27.604;2023-02-26T17:02:04;99718.03;;;0.74;85.44
60427;BME280;46274;47.168;27.604;2023-02-26T17:08:16;99767.59;;;0.87;85.73
60427;BME280;46274;47.168;27.604;2023-02-26T17:14:23;99768.06;;;0.93;85.45
60427;BME280;46274;47.168;27.604;2023-02-26T17:20:28;99768.22;;;0.91;85.76
60427;BME280;46274;47.168;27.604;2023-02-26T17:26:31;99752.31;;;0.67;86.07
60427;BME280;46274;47.168;27.604;2023-02-26T17:32:33;99741.91;;;0.64;85.73
60427;BME280;46274;47.168;27.604;2023-02-26T17:38:36;99609.25;;;-0.23;85.92
60427;BME280;46274;47.168;27.604;2023-02-26T17:44:41;99785.28;;;0.77;86.46
60427;BME280;46274;47.168;27.604;2023-02-26T17:50:55;99787.84;;;0.79;86.30
60427;BME280;46274;47.168;27.604;2023-02-26T17:57:15;99603.78;;;-0.43;86.43
60427;BME280;46274;47.168;27.604;2023-02-26T18:03:24;99467.44;;;-1.27;86.73
60427;BME280;46274;47.168;27.604;2023-02-26T18:09:34;99741.16;;;0.51;86.56
60427;BME280;46274;47.168;27.604;2023-02-26T18:15:49;99489.47;;;-1.14;86.25
60427;BME280;46274;47.168;27.604;2023-02-26T18:21:55;99793.03;;;0.69;87.31
60427;BME280;46274;47.168;27.604;2023-02-26T18:28:03;99650.03;;;-0.11;86.53
60427;BME280;46274;47.168;27.604;2023-02-26T18:34:20;99807.09;;;0.71;87.02
60427;BME280;46274;47.168;27.604;2023-02-26T18:40:28;99697.03;;;0.02;87.16
60427;BME280;46274;47.168;27.604;2023-02-26T18:46:32;99795.72;;;0.58;87.14
60427;BME280;46274;47.168;27.604;2023-02-26T18:52:39;99487.16;;;-1.19;86.73
60427;BME280;46274;47.168;27.604;2023-02-26T18:58:48;99696.09;;;0.14;86.40
60427;BME280;46274;47.168;27.604;2023-02-26T19:04:51;99612.50;;;-0.30;85.85
60427;BME280;46274;47.168;27.604;2023-02-26T19:10:55;99835.50;;;0.83;86.61
60427;BME280;46274;47.168;27.604;2023-02-26T19:16:58;99827.00;;;0.90;85.92
60427;BME280;46274;47.168;27.604;2023-02-26T19:23:03;99784.78;;;0.61;86.09
60427;BME280;46274;47.168;27.604;2023-02-26T19:29:13;99842.75;;;0.93;86.27
60427;BME280;46274;47.168;27.604;2023-02-26T19:35:16;99823.59;;;0.76;85.87
60427;BME280;46274;47.168;27.604;2023-02-26T19:41:22;99813.28;;;0.72;85.26
60427;BME280;46274;47.168;27.604;2023-02-26T19:47:23;99790.16;;;0.83;84.49
60427;BME280;46274;47.168;27.604;2023-02-26T19:53:25;99829.06;;;0.97;84.68
60427;BME280;46274;47.168;27.604;2023-02-26T19:59:27;99843.47;;;0.95;85.05
60427;BME280;46274;47.168;27.604;2023-02-26T20:05:29;99829.16;;;0.84;84.96
60427;BME280;46274;47.168;27.604;2023-02-26T20:11:32;99876.50;;;1.16;85.00
60427;BME280;46274;47.168;27.604;2023-02-26T20:17:34;99849.41;;;0.87;85.49
60427;BME280;46274;47.168;27.604;2023-02-26T20:23:38;99883.50;;;0.95;86.17
60427;BME280;46274;47.168;27.604;2023-02-26T20:29:40;99855.59;;;0.87;85.03
60427;BME280;46274;47.168;27.604;2023-02-26T20:35:42;99879.88;;;0.96;85.70
60427;BME280;46274;47.168;27.604;2023-02-26T20:41:46;99882.06;;;0.91;86.00
60427;BME280;46274;47.168;27.604;2023-02-26T20:47:48;99857.78;;;0.71;85.88
60427;BME280;46274;47.168;27.604;2023-02-26T20:53:50;99893.81;;;0.88;86.29
60427;BME280;46274;47.168;27.604;2023-02-26T20:59:52;99883.44;;;0.72;86.13
60427;BME280;46274;47.168;27.604;2023-02-26T21:05:54;99893.31;;;0.83;86.83
60427;BME280;46274;47.168;27.604;2023-02-26T21:11:56;99889.00;;;0.58;86.91
60427;BME280;46274;47.168;27.604;2023-02-26T21:17:58;99908.22;;;0.85;86.74
60427;BME280;46274;47.168;27.604;2023-02-26T21:24:00;99888.91;;;0.71;86.64
60427;BME280;46274;47.168;27.604;2023-02-26T21:30:08;99910.13;;;0.72;86.84
60427;BME280;46274;47.168;27.604;2023-02-26T21:36:10;99828.22;;;0.28;86.84
60427;BME280;46274;47.168;27.604;2023-02-26T21:42:14;99824.91;;;0.13;86.94
60427;BME280;46274;47.168;27.604;2023-02-26T21:48:16;99896.28;;;0.67;87.21
60427;BME280;46274;47.168;27.604;2023-02-26T21:54:18;99937.78;;;0.82;86.79
60427;BME280;46274;47.168;27.604;2023-02-26T22:00:20;99937.50;;;0.63;87.32
60427;BME280;46274;47.168;27.604;2023-02-26T22:06:23;99941.34;;;0.59;87.71
60427;BME280;46274;47.168;27.604;2023-02-26T22:12:25;99902.41;;;0.34;87.20
60427;BME280;46274;47.168;27.604;2023-02-26T22:18:27;99972.81;;;0.78;87.37
60427;BME280;46274;47.168;27.604;2023-02-26T22:24:28;99870.25;;;0.24;87.26
60427;BME280;46274;47.168;27.604;2023-02-26T22:30:31;99955.75;;;0.80;87.22
60427;BME280;46274;47.168;27.604;2023-02-26T22:36:33;99860.09;;;0.29;87.04
60427;BME280;46274;47.168;27.604;2023-02-26T22:42:36;99956.94;;;0.87;87.19
60427;BME280;46274;47.168;27.604;2023-02-26T22:48:38;99908.66;;;0.68;85.86
60427;BME280;46274;47.168;27.604;2023-02-26T22:54:41;99905.81;;;0.47;86.84
60427;BME280;46274;47.168;27.604;2023-02-26T23:00:43;99871.50;;;0.31;86.84
60427;BME280;46274;47.168;27.604;2023-02-26T23:06:44;99942.19;;;0.59;87.35
60427;BME280;46274;47.168;27.604;2023-02-26T23:12:46;99964.44;;;0.71;87.38
60427;BME280;46274;47.168;27.604;2023-02-26T23:18:48;99969.50;;;0.63;87.35
60427;BME280;46274;47.168;27.604;2023-02-26T23:24:50;99887.47;;;0.07;87.74
60427;BME280;46274;47.168;27.604;2023-02-26T23:30:52;99956.13;;;0.52;87.66
60427;BME280;46274;47.168;27.604;2023-02-26T23:36:54;100001.78;;;0.82;86.76
60427;BME280;46274;47.168;27.604;2023-02-26T23:42:56;100002.94;;;0.67;87.75
60427;BME280;46274;47.168;27.604;2023-02-26T23:48:58;99974.91;;;0.50;87.53
60427;BME280;46274;47.168;27.604;2023-02-26T23:55:00;99980.13;;;0.52;87.94
